Time;durP1;ratioP1;P1;durP2;ratioP2;P2;SDS_P1;SDS_P2;PMS_P1;PMS_P2;Temp;Humidity;BMP_temperature;BMP_pressure;BME280_temperature;BME280_humidity;BME280_pressure;Samples;Min_cycle;Max_cycle;Signal;HPM_P1;HPM_P2
2023/11/27 00:00:54;;;;;;;9.70;4.90;;;;;;;-0.82;96.38;97824.83;107825;1257;71528;-69
2023/11/27 00:03:23;;;;;;;7.90;4.70;;;;;;;-0.80;95.62;97830.29;107764;1257;60362;-68
2023/11/27 00:05:51;;;;;;;10.70;5.20;;;;;;;-0.79;94.85;97842.24;107821;1257;59419;-69
2023/11/27 00:08:19;;;;;;;8.80;5.30;;;;;;;-0.77;94.24;97827.80;107864;1257;73033;-68
2023/11/27 00:10:47;;;;;;;7.60;5.00;;;;;;;-0.75;94.64;97827.86;107845;1257;71137;-68
2023/11/27 00:13:14;;;;;;;8.80;5.20;;;;;;;-0.75;94.88;97825.20;107865;1257;72827;-69
2023/11/27 00:15:42;;;;;;;7.20;5.10;;;;;;;-0.75;94.52;97849.00;107853;1256;59713;-71
2023/11/27 00:18:10;;;;;;;7.30;4.60;;;;;;;-0.76;93.74;97827.02;107939;1257;60003;-68
2023/11/27 00:20:38;;;;;;;7.90;5.00;;;;;;;-0.79;93.42;97830.61;107874;1257;73076;-69
2023/11/27 00:23:05;;;;;;;8.10;4.80;;;;;;;-0.80;93.50;97843.34;107831;1257;72900;-69
2023/11/27 00:25:33;;;;;;;8.40;5.30;;;;;;;-0.83;93.02;97825.05;107804;1262;72808;-69
2023/11/27 00:28:01;;;;;;;9.00;5.00;;;;;;;-0.83;93.25;97831.82;107850;1257;59878;-70
2023/11/27 00:30:29;;;;;;;9.70;5.50;;;;;;;-0.83;93.14;97831.19;107885;1260;59390;-69
2023/11/27 00:32:57;;;;;;;7.00;4.50;;;;;;;-0.84;95.60;97852.58;107846;1257;73097;-67
2023/11/27 00:35:26;;;;;;;7.80;5.00;;;;;;;-0.85;97.21;97834.44;107846;1257;71277;-69
2023/11/27 00:37:54;;;;;;;8.80;5.30;;;;;;;-0.85;97.30;97845.09;107826;1257;75067;-70
2023/11/27 00:40:22;;;;;;;7.60;4.60;;;;;;;-0.84;96.08;97832.19;107805;1257;60026;-70
2023/11/27 00:42:50;;;;;;;7.60;4.50;;;;;;;-0.85;93.71;97843.70;107838;1257;60552;-72
2023/11/27 00:45:17;;;;;;;7.70;4.60;;;;;;;-0.86;93.88;97827.93;107847;1256;71808;-73
2023/11/27 00:47:46;;;;;;;6.20;4.10;;;;;;;-0.86;94.00;97819.80;107858;1257;73764;-69
2023/11/27 00:50:13;;;;;;;7.20;4.70;;;;;;;-0.88;93.69;97844.84;107846;1257;71354;-67
2023/11/27 00:52:41;;;;;;;8.10;5.10;;;;;;;-0.87;93.18;97825.51;107734;1258;59911;-71
2023/11/27 00:55:10;;;;;;;8.00;4.70;;;;;;;-0.86;93.03;97833.64;107760;1262;60056;-70
2023/11/27 00:57:38;;;;;;;10.40;4.90;;;;;;;-0.85;92.68;97831.33;107764;1257;73155;-71
2023/11/27 01:00:08;;;;;;;11.40;5.50;;;;;;;-0.86;92.21;97837.98;107748;1256;71594;-70
2023/11/27 01:02:37;;;;;;;8.40;4.60;;;;;;;-0.87;92.11;97828.29;107748;1261;71806;-68
2023/11/27 01:05:07;;;;;;;8.10;4.90;;;;;;;-0.89;92.01;97814.75;107845;1257;59842;-69
2023/11/27 01:07:35;;;;;;;8.20;4.70;;;;;;;-0.90;93.31;97843.98;107800;1256;59723;-69
2023/11/27 01:10:04;;;;;;;7.90;4.50;;;;;;;-0.90;93.28;97834.76;107765;1257;73078;-68
2023/11/27 01:12:34;;;;;;;8.10;4.60;;;;;;;-0.92;92.57;97843.45;107834;1257;71445;-67
2023/11/27 01:15:06;;;;;;;;;;;;;;;-0.94;93.35;97841.65;107892;1257;72654;-69
2023/11/27 01:17:41;;;;;;;6.70;4.30;;;;;;;-0.94;94.07;97831.27;107844;1257;60890;-69
2023/11/27 01:20:11;;;;;;;7.40;4.30;;;;;;;-0.93;93.25;97846.63;108008;1256;59463;-69
2023/11/27 01:22:40;;;;;;;8.30;5.00;;;;;;;-0.94;93.13;97842.33;107874;1257;72215;-68
2023/11/27 01:25:08;;;;;;;8.70;5.10;;;;;;;-0.92;93.04;97850.23;107873;1256;72851;-68
2023/11/27 01:27:38;;;;;;;8.30;4.30;;;;;;;-0.90;92.52;97853.05;107952;1256;71346;-67
2023/11/27 01:30:08;;;;;;;;;;;;;;;-0.91;92.77;97841.94;107863;1257;59592;-69
2023/11/27 01:32:37;;;;;;;8.30;4.90;;;;;;;-0.91;92.71;97851.10;107879;1256;59507;-68
2023/11/27 01:35:05;;;;;;;7.70;5.20;;;;;;;-0.91;92.11;97850.27;107919;1257;71091;-69
2023/11/27 01:37:34;;;;;;;8.60;4.60;;;;;;;-0.90;90.70;97842.93;107803;1257;71593;-69
2023/11/27 01:40:02;;;;;;;7.40;5.00;;;;;;;-0.91;90.49;97834.34;107732;1265;71712;-68
2023/11/27 01:42:30;;;;;;;8.30;5.30;;;;;;;-0.91;92.10;97840.05;107822;1257;59825;-70
2023/11/27 01:44:57;;;;;;;6.90;4.50;;;;;;;-0.92;93.25;97841.14;107953;1254;60074;-67
2023/11/27 01:47:26;;;;;;;8.00;5.00;;;;;;;-0.95;96.82;97850.29;108201;1257;72994;-68
2023/11/27 01:49:54;;;;;;;7.10;4.90;;;;;;;-0.96;98.80;97852.30;108010;1254;71520;-69
2023/11/27 01:52:25;;;;;;;7.10;4.60;;;;;;;-0.98;99.59;97852.77;108097;1254;72266;-70
2023/11/27 01:54:55;;;;;;;7.70;4.50;;;;;;;-0.98;99.17;97842.19;108142;1254;60820;-70
2023/11/27 01:57:22;;;;;;;7.50;4.70;;;;;;;-0.99;98.50;97842.23;108014;1254;60393;-70
2023/11/27 01:59:51;;;;;;;7.40;4.60;;;;;;;-1.00;97.72;97844.00;108089;1259;72776;-69
2023/11/27 02:02:19;;;;;;;7.00;4.50;;;;;;;-1.05;99.42;97840.20;108185;1254;72867;-69
2023/11/27 02:04:47;;;;;;;7.40;4.80;;;;;;;-1.06;100.00;97850.29;107963;1254;71751;-69
2023/11/27 02:07:14;;;;;;;8.20;5.00;;;;;;;-1.07;100.00;97862.95;107891;1254;60390;-69
2023/11/27 02:09:43;;;;;;;7.90;4.60;;;;;;;-1.09;100.00;97856.14;108132;1254;59310;-72
2023/11/27 02:12:11;;;;;;;8.80;5.50;;;;;;;-1.11;100.00;97855.89;108130;1253;72662;-71
2023/11/27 02:14:42;;;;;;;9.70;5.00;;;;;;;-1.13;100.00;97857.29;108083;1254;72670;-69
2023/11/27 02:17:10;;;;;;;6.90;4.20;;;;;;;-1.11;100.00;97852.33;108071;1254;70896;-69
2023/11/27 02:19:38;;;;;;;6.70;4.80;;;;;;;-1.14;100.00;97849.31;108136;1254;60828;-70
2023/11/27 02:22:05;;;;;;;7.40;4.70;;;;;;;-1.19;100.00;97861.48;108027;1254;60437;-67
2023/11/27 02:27:06;;;;;;;11.60;5.10;;;;;;;-1.43;100.00;97860.11;97842;1282;10002918;-68
2023/11/27 02:29:33;;;;;;;7.10;4.50;;;;;;;-1.19;100.00;97868.49;107282;1266;58788;-69
2023/11/27 02:32:04;;;;;;;7.50;5.00;;;;;;;-1.17;100.00;97864.42;107338;1266;72133;-69
2023/11/27 02:34:31;;;;;;;8.00;5.30;;;;;;;-1.16;100.00;97862.17;107284;1267;71707;-69
2023/11/27 02:36:58;;;;;;;7.80;5.00;;;;;;;-1.13;99.99;97865.61;107272;1270;72512;-69
2023/11/27 02:39:25;;;;;;;7.00;4.70;;;;;;;-1.10;99.97;97874.08;107025;1265;347113;-70
2023/11/27 02:41:53;;;;;;;8.60;5.00;;;;;;;-1.09;100.00;97879.02;107371;1266;60241;-70
2023/11/27 02:44:20;;;;;;;8.40;4.40;;;;;;;-1.10;99.94;97876.34;107397;1265;72255;-69
2023/11/27 02:46:47;;;;;;;7.90;4.90;;;;;;;-1.11;98.13;97893.61;107387;1265;72055;-69
2023/11/27 02:49:14;;;;;;;7.40;4.40;;;;;;;-1.13;96.18;97869.54;107973;1260;71460;-68
2023/11/27 02:51:41;;;;;;;7.50;4.60;;;;;;;-1.17;97.83;97880.98;107976;1256;60249;-68
2023/11/27 02:54:08;;;;;;;7.90;4.80;;;;;;;-1.18;98.78;97877.98;108036;1256;60762;-68
2023/11/27 02:56:35;;;;;;;7.80;4.90;;;;;;;-1.20;98.45;97879.59;107973;1256;71874;-68
2023/11/27 02:59:02;;;;;;;9.20;5.20;;;;;;;-1.21;97.89;97889.59;108017;1256;72722;-70
2023/11/27 03:01:29;;;;;;;8.70;4.90;;;;;;;-1.20;97.47;97887.19;107980;1256;72452;-69
2023/11/27 03:03:56;;;;;;;9.10;4.90;;;;;;;-1.20;96.76;97892.67;107973;1256;60016;-68
2023/11/27 03:06:23;;;;;;;8.40;4.90;;;;;;;-1.21;95.82;97896.82;107924;1256;60530;-68
2023/11/27 03:08:50;;;;;;;7.20;4.50;;;;;;;-1.25;97.94;97884.35;107800;1256;72955;-68
2023/11/27 03:11:17;;;;;;;9.70;5.30;;;;;;;-1.29;99.80;97897.83;107982;1256;72679;-69
2023/11/27 03:13:44;;;;;;;8.60;5.40;;;;;;;-1.33;100.00;97902.34;107937;1261;71528;-68
2023/11/27 03:16:11;;;;;;;7.80;4.80;;;;;;;-1.33;100.00;97900.25;107954;1256;61145;-68
2023/11/27 03:18:38;;;;;;;8.20;4.50;;;;;;;-1.33;100.00;97919.61;108334;1254;59532;-67
2023/11/27 03:21:07;;;;;;;8.10;4.70;;;;;;;-1.32;99.92;97913.08;108284;1254;73096;-69
2023/11/27 03:23:34;;;;;;;9.60;4.70;;;;;;;-1.31;99.42;97904.39;108271;1254;72641;-69
2023/11/27 03:26:03;;;;;;;8.90;5.40;;;;;;;-1.33;99.53;97908.31;108215;1254;73244;-68
2023/11/27 03:28:30;;;;;;;8.90;5.50;;;;;;;-1.34;100.00;97911.91;108297;1254;61674;-69
2023/11/27 03:30:58;;;;;;;8.80;5.20;;;;;;;-1.37;100.00;97920.56;108258;1253;60355;-68
2023/11/27 03:33:25;;;;;;;8.30;4.40;;;;;;;-1.42;99.98;97924.02;108301;1256;73052;-69
2023/11/27 03:35:52;;;;;;;8.50;5.30;;;;;;;-1.47;99.99;97922.64;108317;1254;72772;-69
2023/11/27 03:38:19;;;;;;;7.10;4.70;;;;;;;-1.48;100.00;97920.60;108304;1253;72630;-69
2023/11/27 03:40:46;;;;;;;11.40;4.90;;;;;;;-1.48;100.00;97931.53;108285;1252;60266;-68
2023/11/27 03:43:13;;;;;;;7.60;4.80;;;;;;;-1.49;100.00;97928.32;108322;1253;60347;-70
2023/11/27 03:45:40;;;;;;;12.30;4.80;;;;;;;-1.50;100.00;97936.90;108317;1254;72937;-69
2023/11/27 03:48:07;;;;;;;8.50;5.00;;;;;;;-1.49;100.00;97934.61;108323;1253;73727;-69
2023/11/27 03:50:34;;;;;;;9.70;5.00;;;;;;;-1.51;100.00;97933.65;108275;1254;72598;-70
2023/11/27 03:53:00;;;;;;;8.90;4.90;;;;;;;-1.51;100.00;97951.90;108193;1254;61148;-68
2023/11/27 03:55:27;;;;;;;7.50;5.00;;;;;;;-1.53;100.00;97953.09;108226;1253;60312;-68
2023/11/27 03:57:54;;;;;;;9.60;5.40;;;;;;;-1.57;100.00;97959.36;108261;1253;72337;-69
2023/11/27 04:00:21;;;;;;;8.90;5.00;;;;;;;-1.59;100.00;97963.79;108032;1254;73372;-69
2023/11/27 04:02:48;;;;;;;9.00;4.70;;;;;;;-1.60;100.00;97958.66;108180;1253;72416;-68
2023/11/27 04:05:17;;;;;;;7.50;4.50;;;;;;;-1.62;100.00;97952.61;108195;1253;61221;-69
2023/11/27 04:07:44;;;;;;;7.80;5.10;;;;;;;-1.65;100.00;97971.31;108286;1253;60270;-68
2023/11/27 04:10:16;;;;;;;9.40;5.10;;;;;;;-1.66;100.00;97950.41;108328;1253;73757;-68
2023/11/27 04:12:43;;;;;;;8.80;5.00;;;;;;;-1.71;100.00;97957.77;108259;1253;72865;-69
2023/11/27 04:15:10;;;;;;;9.80;4.90;;;;;;;-1.70;100.00;97979.23;108144;1253;73292;-68
2023/11/27 04:17:37;;;;;;;8.10;4.80;;;;;;;-1.68;100.00;97976.48;108239;1254;59569;-69
2023/11/27 04:20:11;;;;;;;8.10;5.20;;;;;;;-1.67;100.00;97967.26;108145;1253;60324;-67
2023/11/27 04:22:41;;;;;;;7.60;4.60;;;;;;;-1.69;100.00;97977.37;108260;1253;72873;-69
2023/11/27 04:25:09;;;;;;;7.60;4.40;;;;;;;-1.71;100.00;97964.73;108270;1253;72856;-68
2023/11/27 04:27:37;;;;;;;8.40;4.40;;;;;;;-1.74;100.00;97959.94;108273;1253;72668;-68
2023/11/27 04:30:06;;;;;;;7.30;4.60;;;;;;;-1.74;100.00;97983.39;108578;1253;61110;-67
2023/11/27 04:32:33;;;;;;;7.70;4.70;;;;;;;-1.75;100.00;97968.35;108298;1253;59658;-66
2023/11/27 04:35:00;;;;;;;8.70;5.10;;;;;;;-1.76;100.00;97966.70;108245;1253;73792;-67
2023/11/27 04:37:27;;;;;;;8.80;4.70;;;;;;;-1.76;100.00;97979.05;108299;1253;72899;-68
2023/11/27 04:39:54;;;;;;;7.10;4.50;;;;;;;-1.76;100.00;97988.58;108234;1257;71457;-69
2023/11/27 04:42:21;;;;;;;8.40;4.50;;;;;;;-1.76;100.00;97991.39;108291;1253;60971;-68
2023/11/27 04:44:49;;;;;;;10.10;4.90;;;;;;;-1.74;100.00;98001.91;108261;1253;59349;-69
2023/11/27 04:47:16;;;;;;;10.10;5.60;;;;;;;-1.71;100.00;98001.30;108290;1252;71755;-68
2023/11/27 04:49:43;;;;;;;10.60;4.80;;;;;;;-1.71;100.00;98001.00;108251;1256;71546;-66
2023/11/27 04:52:10;;;;;;;14.80;5.10;;;;;;;-1.76;100.00;98017.57;108255;1253;72496;-68
2023/11/27 04:54:38;;;;;;;7.40;4.30;;;;;;;-1.80;100.00;97995.74;108307;1253;59692;-67
2023/11/27 04:57:08;;;;;;;8.00;5.00;;;;;;;-1.82;100.00;98013.71;108331;1252;59661;-70
2023/11/27 04:59:34;;;;;;;7.00;4.60;;;;;;;-1.80;100.00;98008.41;108281;1253;73023;-69
2023/11/27 05:02:01;;;;;;;6.80;3.80;;;;;;;-1.77;100.00;98011.02;108296;1253;71482;-67
2023/11/27 05:04:28;;;;;;;8.50;4.80;;;;;;;-1.81;100.00;98012.46;108248;1257;71274;-69
2023/11/27 05:06:56;;;;;;;8.20;4.50;;;;;;;-1.86;100.00;98026.47;108340;1254;59846;-68
2023/11/27 05:09:23;;;;;;;8.60;4.80;;;;;;;-1.88;100.00;98013.67;108326;1253;60346;-68
2023/11/27 05:11:50;;;;;;;8.10;4.30;;;;;;;-1.86;100.00;98013.39;108262;1253;73871;-67
2023/11/27 05:14:17;;;;;;;10.10;5.10;;;;;;;-1.89;100.00;98032.77;108311;1253;73225;-68
2023/11/27 05:16:44;;;;;;;7.50;4.60;;;;;;;-1.91;100.00;98026.30;108265;1252;73338;-68
2023/11/27 05:19:11;;;;;;;9.30;4.70;;;;;;;-1.92;100.00;98028.16;108261;1253;61190;-68
2023/11/27 05:21:39;;;;;;;7.60;4.20;;;;;;;-1.91;100.00;98036.04;108304;1253;60192;-68
2023/11/27 05:24:07;;;;;;;10.30;5.00;;;;;;;-1.95;100.00;98044.65;108334;1252;72933;-68
2023/11/27 05:26:34;;;;;;;9.10;4.80;;;;;;;-1.93;100.00;98042.38;108348;1253;72519;-69
2023/11/27 05:29:01;;;;;;;8.00;4.80;;;;;;;-1.91;100.00;98044.40;108367;1253;72702;-68
2023/11/27 05:31:30;;;;;;;8.10;4.60;;;;;;;-1.94;100.00;98060.20;108287;1253;59775;-68
2023/11/27 05:33:57;;;;;;;7.00;4.30;;;;;;;-1.91;100.00;98051.83;108311;1253;60334;-68
2023/11/27 05:36:24;;;;;;;7.30;4.40;;;;;;;-1.94;100.00;98067.42;108313;1253;72964;-70
2023/11/27 05:38:50;;;;;;;7.10;4.50;;;;;;;-1.94;100.00;98077.20;108328;1253;73089;-67
2023/11/27 05:41:22;;;;;;;8.40;5.10;;;;;;;-1.93;100.00;98062.64;108313;1253;73331;-68
2023/11/27 05:43:52;;;;;;;9.00;5.10;;;;;;;-1.94;100.00;98068.73;108316;1253;61320;-67
2023/11/27 05:46:19;;;;;;;7.30;4.60;;;;;;;-1.92;100.00;98075.55;108317;1253;60238;-68
2023/11/27 05:48:49;;;;;;;7.70;4.80;;;;;;;-1.92;100.00;98083.04;108301;1253;73138;-68
2023/11/27 05:51:19;;;;;;;8.70;5.00;;;;;;;-1.91;100.00;98084.09;108305;1253;71295;-67
2023/11/27 05:53:51;;;;;;;8.10;4.50;;;;;;;-1.88;100.00;98090.91;108268;1256;72427;-68
2023/11/27 05:56:18;;;;;;;8.30;5.20;;;;;;;-1.88;100.00;98085.68;108325;1253;60286;-68
2023/11/27 05:58:46;;;;;;;9.80;5.10;;;;;;;-1.87;100.00;98092.75;108334;1254;60027;-66
2023/11/27 06:01:13;;;;;;;9.10;5.00;;;;;;;-1.86;100.00;98085.76;108235;1253;72191;-67
2023/11/27 06:03:42;;;;;;;7.70;4.60;;;;;;;-1.85;100.00;98087.50;108321;1253;71782;-67
2023/11/27 06:06:10;;;;;;;9.70;4.50;;;;;;;-1.86;100.00;98090.67;108236;1253;72417;-66
2023/11/27 06:08:37;;;;;;;9.40;5.50;;;;;;;-1.86;100.00;98105.95;108223;1257;61158;-67
2023/11/27 06:11:06;;;;;;;10.00;5.20;;;;;;;-1.84;100.00;98113.42;108422;1256;59509;-68
2023/11/27 06:13:33;;;;;;;7.90;4.60;;;;;;;-1.85;100.00;98119.42;108155;1253;72966;-67
2023/11/27 06:16:02;;;;;;;8.00;5.00;;;;;;;-1.89;100.00;98101.88;108312;1253;72690;-68
2023/11/27 06:18:29;;;;;;;10.30;5.00;;;;;;;-1.87;100.00;98113.84;108255;1257;71506;-68
2023/11/27 06:20:56;;;;;;;9.70;5.50;;;;;;;-1.86;100.00;98123.02;108284;1253;59618;-66
2023/11/27 06:23:23;;;;;;;7.70;5.20;;;;;;;-1.81;100.00;98131.26;108244;1254;59839;-67
2023/11/27 06:25:50;;;;;;;9.20;5.40;;;;;;;-1.78;100.00;98124.98;108176;1253;71163;-66
2023/11/27 06:28:17;;;;;;;7.60;4.70;;;;;;;-1.78;100.00;98127.27;108352;1253;73542;-67
2023/11/27 06:30:44;;;;;;;7.30;4.00;;;;;;;-1.75;100.00;98127.90;108225;1253;73273;-67
2023/11/27 06:33:10;;;;;;;8.90;5.20;;;;;;;-1.74;100.00;98134.10;108275;1253;61035;-67
2023/11/27 06:35:37;;;;;;;9.80;5.30;;;;;;;-1.72;100.00;98131.98;108228;1253;60290;-67
2023/11/27 06:38:04;;;;;;;10.50;5.20;;;;;;;-1.68;100.00;98135.20;108320;1253;72551;-67
2023/11/27 06:40:31;;;;;;;10.10;5.60;;;;;;;-1.60;100.00;98142.85;108248;1256;72904;-67
2023/11/27 06:43:14;;;;;;;9.60;4.60;;;;;;;-1.58;100.00;98144.45;108267;1256;73564;-67
2023/11/27 06:45:41;;;;;;;9.70;5.70;;;;;;;-1.59;100.00;98141.82;108317;1253;61194;-68
2023/11/27 06:48:08;;;;;;;7.60;4.90;;;;;;;-1.57;100.00;98151.03;108319;1257;60332;-67
2023/11/27 06:50:35;;;;;;;9.20;5.00;;;;;;;-1.54;100.00;98151.96;108226;1253;72280;-67
2023/11/27 06:53:02;;;;;;;7.50;4.50;;;;;;;-1.51;100.00;98148.31;108520;1254;72535;-68
2023/11/27 06:55:29;;;;;;;8.70;4.80;;;;;;;-1.48;100.00;98141.96;108254;1254;70327;-68
2023/11/27 06:57:56;;;;;;;8.10;4.30;;;;;;;-1.44;100.00;98149.66;108301;1254;61058;-66
2023/11/27 07:00:23;;;;;;;8.60;4.90;;;;;;;-1.43;100.00;98152.52;108304;1252;60419;-66
2023/11/27 07:02:50;;;;;;;9.00;5.10;;;;;;;-1.40;100.00;98153.45;108348;1255;73898;-66
2023/11/27 07:05:18;;;;;;;9.50;5.20;;;;;;;-1.37;100.00;98155.02;108339;1253;72496;-69
2023/11/27 07:07:45;;;;;;;8.00;4.90;;;;;;;-1.36;100.00;98165.86;108292;1253;73145;-67
2023/11/27 07:10:13;;;;;;;7.50;5.10;;;;;;;-1.32;100.00;98162.21;108187;1253;61292;-67
2023/11/27 07:12:40;;;;;;;8.40;5.30;;;;;;;-1.50;100.00;98164.84;108294;1254;60276;-67
2023/11/27 07:15:11;;;;;;;9.10;4.90;;;;;;;-1.83;100.00;98169.48;108237;1256;72615;-68
2023/11/27 07:17:38;;;;;;;6.40;3.90;;;;;;;-1.89;100.00;98182.35;108309;1257;71281;-68
2023/11/27 07:20:06;;;;;;;8.10;5.00;;;;;;;-1.94;100.00;98183.69;108168;1253;72653;-68
2023/11/27 07:22:33;;;;;;;8.20;4.40;;;;;;;-1.93;100.00;98186.68;108269;1257;60994;-67
2023/11/27 07:25:00;;;;;;;7.60;4.90;;;;;;;-1.91;100.00;98192.89;108289;1253;60320;-67
2023/11/27 07:27:28;;;;;;;7.30;4.30;;;;;;;-1.93;100.00;98201.75;108252;1253;74751;-67
2023/11/27 07:29:55;;;;;;;7.10;4.50;;;;;;;-1.92;100.00;98204.11;108286;1253;72596;-68
2023/11/27 07:32:22;;;;;;;8.30;5.00;;;;;;;-1.93;100.00;98213.78;108294;1254;72713;-68
2023/11/27 07:34:49;;;;;;;8.40;5.20;;;;;;;-1.94;100.00;98206.48;108276;1254;60309;-67
2023/11/27 07:37:16;;;;;;;9.30;5.10;;;;;;;-1.97;100.00;98221.59;108225;1252;60351;-67
2023/11/27 07:39:44;;;;;;;11.20;5.30;;;;;;;-1.93;100.00;98220.11;108299;1253;73699;-66
2023/11/27 07:42:14;;;;;;;7.70;5.00;;;;;;;-1.86;100.00;98218.35;108241;1254;72768;-68
2023/11/27 07:44:43;;;;;;;7.90;4.70;;;;;;;-1.44;100.00;98205.39;108274;1257;72061;-69
2023/11/27 07:47:10;;;;;;;8.70;5.30;;;;;;;-1.34;100.00;98209.42;108257;1253;60892;-68
2023/11/27 07:49:37;;;;;;;9.10;5.10;;;;;;;-1.31;100.00;98224.19;108330;1253;60326;-66
2023/11/27 07:52:04;;;;;;;8.50;5.10;;;;;;;-1.28;100.00;98218.42;108287;1254;74340;-67
2023/11/27 07:54:31;;;;;;;8.80;4.70;;;;;;;-1.24;100.00;98212.27;108320;1257;71067;-66
2023/11/27 07:56:58;;;;;;;11.80;5.50;;;;;;;-1.22;100.00;98218.58;108148;1254;72646;-67
2023/11/27 07:59:26;;;;;;;9.10;4.80;;;;;;;-1.20;100.00;98226.15;108167;1254;61206;-68
2023/11/27 08:14:48;;;;;;;8.10;5.40;;;;;;;-1.15;100.00;98230.05;105616;1285;613603;-68
2023/11/27 08:17:15;;;;;;;9.30;5.90;;;;;;;-0.97;100.00;98231.59;107236;1267;121959;-69
2023/11/27 08:19:42;;;;;;;9.50;6.00;;;;;;;-0.98;100.00;98231.84;107339;1265;60991;-69
2023/11/27 08:22:11;;;;;;;10.20;5.40;;;;;;;-1.00;100.00;98245.90;107386;1266;70891;-68
2023/11/27 08:24:40;;;;;;;9.50;5.40;;;;;;;-1.02;100.00;98242.01;107328;1266;71682;-70
2023/11/27 08:27:06;;;;;;;9.50;5.00;;;;;;;-1.05;100.00;98242.48;107345;1265;73838;-69
2023/11/27 08:29:33;;;;;;;9.50;5.70;;;;;;;-1.01;100.00;98244.36;107295;1265;61198;-69
2023/11/27 08:32:00;;;;;;;9.50;5.50;;;;;;;-1.05;100.00;98254.52;107302;1266;60132;-70
2023/11/27 08:34:30;;;;;;;8.80;5.90;;;;;;;-1.06;100.00;98246.48;107340;1266;72036;-68
2023/11/27 08:36:59;;;;;;;8.40;5.50;;;;;;;-1.07;100.00;98259.73;107394;1266;72543;-69
2023/11/27 08:39:26;;;;;;;9.40;5.10;;;;;;;-1.07;100.00;98258.10;107329;1266;72590;-69
2023/11/27 08:41:53;;;;;;;9.20;5.30;;;;;;;-1.09;98.98;98253.41;107337;1265;59954;-69
2023/11/27 08:44:20;;;;;;;9.50;5.10;;;;;;;-1.06;98.47;98261.16;107263;1265;60416;-68
2023/11/27 08:46:47;;;;;;;8.50;5.40;;;;;;;-1.07;94.83;98250.70;107399;1265;72972;-69
2023/11/27 08:49:15;;;;;;;7.40;4.30;;;;;;;-1.06;93.48;98251.05;107346;1265;73112;-68
2023/11/27 08:51:45;;;;;;;8.60;5.10;;;;;;;-1.04;90.01;98263.50;107318;1265;72652;-68
2023/11/27 08:54:12;;;;;;;8.10;5.30;;;;;;;-1.05;87.20;98254.16;107312;1266;59743;-67
2023/11/27 08:56:41;;;;;;;8.30;4.90;;;;;;;-1.08;86.15;98265.04;107296;1266;60207;-70
2023/11/27 08:59:08;;;;;;;10.10;5.50;;;;;;;-1.09;86.63;98268.39;107313;1266;73260;-68
2023/11/27 09:01:36;;;;;;;12.10;5.10;;;;;;;-1.04;85.93;98266.53;107311;1266;72720;-69
2023/11/27 09:04:03;;;;;;;7.00;4.70;;;;;;;-1.03;83.83;98269.39;107296;1266;70977;-70
2023/11/27 09:06:31;;;;;;;10.00;4.70;;;;;;;-1.01;81.49;98265.53;107332;1265;61348;-69
2023/11/27 09:08:59;;;;;;;7.90;4.50;;;;;;;-1.03;78.70;98271.73;107457;1266;60169;-69
2023/11/27 09:11:26;;;;;;;6.90;4.70;;;;;;;-0.98;77.93;98266.58;107292;1266;73115;-70
2023/11/27 09:13:54;;;;;;;8.40;5.10;;;;;;;-0.97;76.40;98260.13;107289;1266;72586;-69
2023/11/27 09:16:21;;;;;;;6.70;3.60;;;;;;;-0.95;75.42;98269.29;108127;1256;72832;-69
2023/11/27 09:18:49;;;;;;;8.90;4.70;;;;;;;-0.95;74.14;98263.65;108030;1256;61148;-68
2023/11/27 09:21:15;;;;;;;10.10;4.50;;;;;;;-0.91;73.86;98268.67;108094;1256;60166;-70
2023/11/27 09:23:43;;;;;;;7.80;4.60;;;;;;;-0.88;73.59;98269.30;108196;1256;70736;-70
2023/11/27 09:26:10;;;;;;;10.20;4.20;;;;;;;-0.85;72.12;98257.45;108070;1258;72546;-70
2023/11/27 09:28:37;;;;;;;9.60;4.50;;;;;;;-0.86;70.20;98260.11;108015;1256;71634;-70
2023/11/27 09:31:04;;;;;;;9.40;4.80;;;;;;;-0.86;68.98;98276.41;108085;1255;60944;-70
2023/11/27 09:33:34;;;;;;;9.50;4.60;;;;;;;-0.82;69.00;98270.14;107906;1256;59783;-69
2023/11/27 09:36:03;;;;;;;9.30;4.80;;;;;;;-0.77;68.01;98269.52;108039;1256;71824;-70
2023/11/27 09:38:31;;;;;;;10.60;4.10;;;;;;;-0.70;67.67;98281.48;108074;1255;72609;-68
2023/11/27 09:40:58;;;;;;;8.50;4.50;;;;;;;-0.69;66.65;98303.24;108049;1256;72669;-69
2023/11/27 09:43:27;;;;;;;10.30;4.20;;;;;;;-0.68;66.63;98265.94;108190;1256;59650;-70
2023/11/27 09:45:57;;;;;;;7.70;4.50;;;;;;;-0.66;65.98;98268.05;108051;1255;60143;-70
2023/11/27 09:48:24;;;;;;;7.40;4.30;;;;;;;-0.65;65.20;98278.61;108088;1256;73079;-70
2023/11/27 09:50:52;;;;;;;7.00;4.00;;;;;;;-0.62;64.92;98282.75;108163;1256;71575;-69
2023/11/27 09:53:19;;;;;;;8.20;4.30;;;;;;;-0.58;64.57;98277.46;108310;1255;72717;-70
2023/11/27 09:55:49;;;;;;;6.30;3.70;;;;;;;-0.49;64.62;98272.76;107788;1255;59579;-69
2023/11/27 09:58:17;;;;;;;7.80;3.90;;;;;;;-0.43;64.33;98291.84;108184;1255;60321;-70
2023/11/27 10:00:46;;;;;;;6.20;3.50;;;;;;;-0.37;63.96;98295.85;108049;1256;71850;-69
2023/11/27 10:03:13;;;;;;;8.40;4.30;;;;;;;-0.35;63.71;98303.34;107938;1256;72344;-70
2023/11/27 10:05:43;;;;;;;6.60;3.80;;;;;;;-0.33;63.25;98302.20;107820;1257;72700;-70
2023/11/27 10:08:11;;;;;;;7.20;4.00;;;;;;;-0.30;63.01;98293.86;108072;1256;59518;-69
2023/11/27 10:10:38;;;;;;;8.10;4.70;;;;;;;-0.23;62.88;98290.80;108099;1255;60316;-69
2023/11/27 10:13:12;;;;;;;9.10;4.00;;;;;;;-0.21;62.17;98298.79;108022;1256;72913;-69
2023/11/27 10:15:53;;;;;;;9.70;4.00;;;;;;;-0.23;61.94;98288.80;108071;1256;72648;-69
2023/11/27 10:18:20;;;;;;;6.70;4.10;;;;;;;-0.22;61.90;98310.80;107867;1256;70400;-70
2023/11/27 10:20:52;;;;;;;6.10;3.60;;;;;;;-0.24;61.56;98321.21;108118;1256;60634;-71
2023/11/27 10:23:20;;;;;;;6.90;3.90;;;;;;;-0.23;61.61;98322.48;108148;1255;59952;-70
2023/11/27 10:26:00;;;;;;;8.20;3.90;;;;;;;-0.20;61.84;98338.89;108088;1255;73414;-69
2023/11/27 10:28:41;;;;;;;10.20;3.90;;;;;;;-0.20;61.43;98336.63;107962;1256;72769;-68
2023/11/27 10:31:08;;;;;;;9.80;4.50;;;;;;;-0.20;61.55;98341.04;108016;1259;73868;-68
2023/11/27 10:33:35;;;;;;;6.20;3.50;;;;;;;-0.21;61.21;98352.84;108057;1255;60858;-69
2023/11/27 10:47:43;;;;;;;10.70;4.50;;;;;;;-0.17;60.95;98375.65;105905;1281;613093;-69
2023/11/27 10:50:12;;;;;;;6.70;3.40;;;;;;;-0.06;60.30;98378.73;107300;1266;159198;-69
2023/11/27 10:52:39;;;;;;;7.20;3.80;;;;;;;-0.18;59.77;98382.92;107382;1266;60311;-70
2023/11/27 10:55:08;;;;;;;9.20;4.00;;;;;;;-0.25;59.77;98382.23;107537;1263;72277;-71
2023/11/27 10:57:36;;;;;;;7.60;4.20;;;;;;;-0.27;60.01;98389.90;107707;1260;71829;-70
2023/11/27 11:00:04;;;;;;;12.90;3.80;;;;;;;-0.28;60.14;98394.81;107768;1259;72694;-69
2023/11/27 11:02:32;;;;;;;14.00;3.90;;;;;;;-0.31;59.97;98383.82;107805;1261;60068;-70
2023/11/27 11:05:00;;;;;;;8.80;3.70;;;;;;;-0.36;59.47;98392.39;107731;1259;61666;-68
2023/11/27 11:07:38;;;;;;;6.20;3.40;;;;;;;-0.41;59.35;98402.34;107748;1260;72060;-70
2023/11/27 11:10:09;;;;;;;9.10;4.30;;;;;;;-0.41;59.31;98405.58;107849;1260;72723;-70
2023/11/27 11:12:36;;;;;;;6.40;3.90;;;;;;;-0.38;59.02;98410.67;107800;1259;73923;-70
2023/11/27 11:15:03;;;;;;;8.20;4.00;;;;;;;-0.37;59.20;98411.05;107629;1259;59276;-69
2023/11/27 11:17:50;;;;;;;8.10;4.20;;;;;;;-0.35;59.65;98408.84;107613;1260;61529;-71
2023/11/27 11:20:43;;;;;;;8.70;4.30;;;;;;;-0.29;59.78;98425.39;107823;1260;73098;-70
2023/11/27 11:23:27;;;;;;;7.10;4.30;;;;;;;-0.27;59.24;98418.76;107777;1262;72759;-70
2023/11/27 11:26:04;;;;;;;9.10;4.60;;;;;;;-0.26;59.09;98426.44;107698;1264;72749;-69
2023/11/27 11:28:35;;;;;;;12.40;4.20;;;;;;;-0.27;58.64;98422.74;107748;1260;59475;-69
2023/11/27 11:31:12;;;;;;;6.30;4.00;;;;;;;-0.27;58.94;98440.06;107804;1260;60077;-69
2023/11/27 11:33:39;;;;;;;7.50;4.30;;;;;;;-0.26;58.86;98438.56;107779;1260;71832;-70
2023/11/27 11:36:06;;;;;;;7.50;3.80;;;;;;;-0.25;58.60;98443.77;107674;1260;73099;-68
2023/11/27 11:38:33;;;;;;;6.80;4.00;;;;;;;-0.27;57.94;98439.21;108596;1260;70684;-70
2023/11/27 11:41:04;;;;;;;8.80;4.00;;;;;;;-0.29;57.99;98436.35;107790;1260;60128;-69
2023/11/27 11:43:41;;;;;;;7.90;3.60;;;;;;;-0.29;57.99;98444.59;107679;1260;60181;-70
2023/11/27 11:46:18;;;;;;;8.40;4.10;;;;;;;-0.29;58.19;98448.98;107658;1260;73095;-70
2023/11/27 11:48:55;;;;;;;8.70;4.20;;;;;;;-0.28;58.02;98455.26;107649;1260;73933;-69
2023/11/27 11:51:25;;;;;;;10.30;4.00;;;;;;;-0.26;58.14;98448.84;107686;1260;72622;-71
2023/11/27 11:53:52;;;;;;;8.40;4.60;;;;;;;-0.27;57.58;98458.63;107705;1260;60130;-69